Quick Links (Output Below):   Max & Min Temps   /   Climate Reports   /   Zone Forecasts
River Forecasts   /   Forestry Forecasts   /   Aviation Forecasts   /   Radars   /   Features

Terminal Aerodrome Forecast (Jonesboro)

Pick a Site:
Arkadelphia | El Dorado | Fayetteville | Fort Smith | Harrison | Highfill | Hot Springs | Jonesboro
Little Rock | Monticello | Mountain Home | Pine Bluff | Texarkana
 Forecast 

KJBR 042331Z 0500/0524 33011G20KT P6SM FEW080
     FM050100 32006KT P6SM SKC
     FM051400 34012G18KT P6SM SCT050=


 Latest METARs (Observations) 
How to Decode METARs
01Z KJBR 050053Z AUTO 36004KT 10SM CLR 21/04 A2982 RMK AO2 RAB2355E01
         SLP096 P0000 T02060039
         
00Z KJBR 042353Z AUTO 32009KT 10SM CLR 23/04 A2980 RMK AO2 RAE41
         SLP090 P0000 60000 T02280044 10256 20228 53008
         
***** Today's Observations (Above) *****


23Z KJBR 042253Z AUTO 32011G20KT 10SM -RA CLR 24/04 A2979 RMK AO2
         RAE11B31 SLP087 P0000 T02390044
         
22Z KJBR 042153Z AUTO 32011G19KT 10SM -RA CLR 24/05 A2978 RMK AO2
         SLP083 P0000 T02440050
         
21Z KJBR 042053Z AUTO 33009G18KT 10SM -RA FEW085 25/06 A2978 RMK AO2
         SLP082 P0000 60000 T02500056 58000
         
20Z KJBR 041953Z AUTO 30008G25KT 10SM -RA CLR 25/06 A2978 RMK AO2
         SLP083 P0000 T02500056
         
19Z KJBR 041853Z AUTO 31015G24KT 10SM -RA CLR 24/06 A2978 RMK AO2 PK
         WND 32026/1822 SLP083 P0000 T02440061
         
18Z KJBR 041753Z AUTO 30016G21KT 10SM -RA FEW090 24/09 A2978 RMK AO2
         PK WND 30026/1741 SLP082 P0000 60000 T02440089 10244 20117
         56015
         
17Z KJBR 041653Z AUTO 28019G27KT 10SM -RA BKN100 23/10 A2979 RMK AO2
         PK WND 28027/1652 SLP085 P0000 T02330100
         
16Z KJBR 041553Z AUTO 27012KT 10SM -RA CLR 21/10 A2981 RMK AO2 RAB24
         SLP092 P0000 T02110100
         
***** Yesterday's Observations (Above) *****


Back to Main Page
http://www.srh.noaa.gov/lzk/qfcst.php

USA.gov is the U.S. government's official web portal to all federal, state and local government web resources and services.